createdAt,value
2023-06-10T00:00:52.169Z,0.00
2023-06-10T00:01:52.145Z,0.00
2023-06-10T00:02:52.227Z,0.00
2023-06-10T00:03:52.297Z,0.00
2023-06-10T00:04:52.284Z,0.00
2023-06-10T00:05:52.084Z,0.00
2023-06-10T00:06:52.060Z,0.00
2023-06-10T00:07:52.083Z,0.00
2023-06-10T00:08:52.044Z,0.00
2023-06-10T00:09:52.035Z,0.00
2023-06-10T00:10:52.010Z,0.00
2023-06-10T00:11:52.002Z,0.00
2023-06-10T00:12:51.993Z,0.00
2023-06-10T00:13:51.991Z,0.00
2023-06-10T00:14:51.955Z,0.00
2023-06-10T00:15:51.959Z,0.00
2023-06-10T00:16:51.922Z,0.00
2023-06-10T00:17:51.923Z,0.00
2023-06-10T00:18:51.913Z,0.00
2023-06-10T00:19:51.876Z,0.00
2023-06-10T00:20:51.883Z,0.00
2023-06-10T00:21:51.858Z,0.00
2023-06-10T00:22:51.841Z,0.00
2023-06-10T00:23:51.877Z,0.00
2023-06-10T00:24:51.818Z,0.00
2023-06-10T00:25:51.801Z,0.00
2023-06-10T00:26:51.815Z,0.00
2023-06-10T00:27:51.768Z,0.00
2023-06-10T00:28:51.746Z,0.00
2023-06-10T00:29:51.734Z,0.00
2023-06-10T00:30:51.716Z,0.00
2023-06-10T00:31:51.752Z,0.00
2023-06-10T00:32:51.789Z,0.00
2023-06-10T00:33:51.736Z,0.00
2023-06-10T00:34:51.687Z,0.00
2023-06-10T00:35:51.665Z,0.00
2023-06-10T00:36:51.645Z,0.00
2023-06-10T00:37:51.636Z,0.00
2023-06-10T00:38:51.629Z,0.00
2023-06-10T00:39:51.608Z,0.00
2023-06-10T00:40:51.582Z,0.00
2023-06-10T00:41:51.600Z,0.00
2023-06-10T00:42:51.572Z,0.00
2023-06-10T00:43:51.549Z,0.00
2023-06-10T00:44:51.537Z,0.00
2023-06-10T00:45:51.518Z,0.00
2023-06-10T00:46:51.505Z,0.00
2023-06-10T00:47:51.523Z,0.00
2023-06-10T00:48:51.489Z,0.00
2023-06-10T00:49:51.475Z,0.00
2023-06-10T00:50:51.448Z,0.00
2023-06-10T00:51:51.451Z,0.00
2023-06-10T00:52:52.807Z,0.00
2023-06-10T00:53:51.449Z,0.00
2023-06-10T00:54:51.417Z,0.00
2023-06-10T00:55:51.382Z,0.00
2023-06-10T00:56:51.392Z,0.00
2023-06-10T00:57:51.356Z,0.00
2023-06-10T00:58:51.324Z,0.00
2023-06-10T00:59:51.329Z,0.00
2023-06-10T01:00:51.365Z,0.00
2023-06-10T01:01:51.315Z,0.00
2023-06-10T01:02:51.331Z,0.00
2023-06-10T01:03:51.275Z,0.00
2023-06-10T01:04:51.256Z,0.00
2023-06-10T01:05:51.262Z,0.00
2023-06-10T01:06:51.221Z,0.00
2023-06-10T01:07:51.222Z,0.00
2023-06-10T01:08:51.190Z,0.00
2023-06-10T01:09:51.185Z,0.00
2023-06-10T01:10:51.177Z,0.00
2023-06-10T01:11:51.161Z,0.00
2023-06-10T01:12:50.940Z,0.00
2023-06-10T01:13:51.136Z,0.00
2023-06-10T01:14:51.112Z,0.00
2023-06-10T01:15:51.116Z,0.00
2023-06-10T01:16:51.147Z,0.00
2023-06-10T01:17:51.141Z,0.00
2023-06-10T01:18:51.051Z,0.00
2023-06-10T01:19:51.050Z,0.00
2023-06-10T01:20:52.115Z,0.00
2023-06-10T01:21:50.553Z,0.00
2023-06-10T01:22:50.999Z,0.00
2023-06-10T01:23:51.053Z,0.00
2023-06-10T01:24:50.985Z,0.00
2023-06-10T01:25:50.966Z,0.00
2023-06-10T01:26:50.945Z,0.00
2023-06-10T01:27:50.935Z,0.00
2023-06-10T01:28:50.943Z,0.00
2023-06-10T01:29:50.922Z,0.00
2023-06-10T01:30:50.904Z,0.00
2023-06-10T01:31:51.001Z,0.00
2023-06-10T01:32:50.885Z,0.00
2023-06-10T01:33:50.873Z,0.00
2023-06-10T01:34:50.357Z,0.00
2023-06-10T01:35:50.824Z,0.00
2023-06-10T01:36:50.849Z,0.00
2023-06-10T01:37:50.816Z,0.00
2023-06-10T01:38:50.798Z,0.00
2023-06-10T01:39:50.873Z,0.00
2023-06-10T01:40:50.758Z,0.00
2023-06-10T01:41:50.751Z,0.00
2023-06-10T01:42:50.725Z,0.00
2023-06-10T01:43:50.728Z,0.00
2023-06-10T01:44:50.717Z,0.00
2023-06-10T01:45:50.706Z,0.00
2023-06-10T01:46:50.680Z,0.00
2023-06-10T01:47:50.968Z,0.00
2023-06-10T01:48:50.653Z,0.00
2023-06-10T01:49:50.643Z,0.00
2023-06-10T01:50:50.608Z,0.00
2023-06-10T01:51:50.633Z,0.00
2023-06-10T01:52:50.588Z,0.00
2023-06-10T01:53:50.603Z,0.00
2023-06-10T01:54:50.621Z,0.00
2023-06-10T01:55:50.579Z,0.00
2023-06-10T01:56:50.587Z,0.00
2023-06-10T01:57:50.601Z,0.00
2023-06-10T01:58:50.603Z,0.00
2023-06-10T01:59:50.502Z,0.00
2023-06-10T02:00:50.516Z,0.00
2023-06-10T02:01:50.470Z,0.00
2023-06-10T02:02:50.552Z,0.00
2023-06-10T02:03:50.471Z,0.00
2023-06-10T02:04:50.417Z,0.00
2023-06-10T02:05:50.416Z,0.00
2023-06-10T02:06:50.412Z,0.00
2023-06-10T02:07:50.400Z,0.00
2023-06-10T02:08:50.382Z,0.00
2023-06-10T02:09:50.365Z,0.00
2023-06-10T02:10:50.336Z,0.00
2023-06-10T02:11:50.327Z,0.00
2023-06-10T02:12:50.315Z,0.00
2023-06-10T02:13:50.289Z,0.00
2023-06-10T02:14:50.294Z,0.00
2023-06-10T02:15:50.265Z,0.00
2023-06-10T02:16:50.378Z,0.00
2023-06-10T02:17:50.335Z,0.00
2023-06-10T02:18:49.778Z,0.00
2023-06-10T02:19:50.212Z,0.00
2023-06-10T02:20:50.188Z,0.00
2023-06-10T02:21:50.181Z,0.00
2023-06-10T02:22:50.182Z,0.00
2023-06-10T02:23:50.153Z,0.00
2023-06-10T02:24:50.148Z,0.00
2023-06-10T02:25:50.128Z,0.00
2023-06-10T02:26:50.129Z,0.00
2023-06-10T02:27:50.095Z,0.00
2023-06-10T02:28:50.075Z,0.00
2023-06-10T02:29:49.133Z,0.00
2023-06-10T02:30:50.072Z,0.00
2023-06-10T02:31:50.117Z,0.00
2023-06-10T02:32:50.034Z,0.00
2023-06-10T02:33:50.034Z,0.00
2023-06-10T02:34:50.012Z,0.00
2023-06-10T02:35:49.987Z,0.00
2023-06-10T02:36:48.344Z,0.00
2023-06-10T02:37:49.970Z,0.00
2023-06-10T02:38:49.946Z,0.00
2023-06-10T02:39:49.917Z,0.00
2023-06-10T02:40:49.926Z,0.00
2023-06-10T02:41:49.900Z,0.00
2023-06-10T02:42:49.883Z,0.00
2023-06-10T02:43:49.896Z,0.00
2023-06-10T02:44:47.983Z,0.00
2023-06-10T02:45:49.956Z,0.00
2023-06-10T02:46:49.880Z,0.00
2023-06-10T02:47:49.897Z,0.00
2023-06-10T02:48:49.816Z,0.00
2023-06-10T02:49:49.807Z,0.00
2023-06-10T02:50:49.796Z,0.00
2023-06-10T02:51:49.788Z,0.00
2023-06-10T02:52:49.761Z,0.00
2023-06-10T02:53:49.767Z,0.00
2023-06-10T02:54:49.750Z,0.00
2023-06-10T02:55:49.727Z,0.00
2023-06-10T02:56:49.720Z,0.00
2023-06-10T02:57:49.706Z,0.00
2023-06-10T02:58:49.671Z,0.00
2023-06-10T02:59:49.671Z,0.00
2023-06-10T03:00:49.654Z,0.00
2023-06-10T03:01:49.692Z,0.00
2023-06-10T03:02:49.679Z,0.00
2023-06-10T03:03:49.636Z,0.00
2023-06-10T03:04:49.588Z,0.00
2023-06-10T03:05:49.596Z,0.00
2023-06-10T03:06:49.553Z,0.00
2023-06-10T03:07:49.541Z,0.00
2023-06-10T03:08:49.548Z,0.00
2023-06-10T03:09:49.524Z,0.00
2023-06-10T03:10:49.527Z,0.00
2023-06-10T03:11:49.491Z,0.00
2023-06-10T03:12:49.489Z,0.00
2023-06-10T03:13:49.479Z,0.00
2023-06-10T03:14:49.534Z,0.00
2023-06-10T03:15:49.524Z,5.62
2023-06-10T03:16:49.433Z,5.62
2023-06-10T03:17:49.450Z,5.62
2023-06-10T03:18:49.415Z,5.62
2023-06-10T03:19:49.549Z,5.62
2023-06-10T03:20:49.372Z,5.62
2023-06-10T03:21:49.348Z,5.62
2023-06-10T03:22:49.339Z,5.62
2023-06-10T03:23:49.381Z,11.25
2023-06-10T03:24:49.354Z,11.25
2023-06-10T03:25:49.285Z,11.25
2023-06-10T03:26:49.285Z,11.25
2023-06-10T03:27:49.268Z,11.25
2023-06-10T03:28:49.263Z,11.25
2023-06-10T03:29:49.264Z,16.88
2023-06-10T03:30:49.231Z,16.88
2023-06-10T03:31:49.313Z,16.88
2023-06-10T03:32:49.312Z,16.88
2023-06-10T03:33:49.198Z,22.50
2023-06-10T03:34:49.173Z,22.50
2023-06-10T03:35:49.155Z,22.50
2023-06-10T03:36:49.143Z,22.50
2023-06-10T03:37:49.148Z,28.12
2023-06-10T03:38:49.125Z,28.12
2023-06-10T03:39:49.097Z,28.12
2023-06-10T03:40:49.102Z,33.75
2023-06-10T03:41:49.079Z,33.75
2023-06-10T03:42:49.059Z,33.75
2023-06-10T03:43:49.050Z,39.38
2023-06-10T03:44:49.019Z,39.38
2023-06-10T03:45:49.107Z,39.38
2023-06-10T03:46:48.994Z,45.00
2023-06-10T03:47:49.104Z,45.00
2023-06-10T03:48:48.970Z,45.00
2023-06-10T03:49:47.613Z,50.62
2023-06-10T03:50:48.951Z,50.62
2023-06-10T03:51:48.947Z,50.62
2023-06-10T03:52:48.942Z,56.25
2023-06-10T03:53:48.908Z,56.25
2023-06-10T03:54:48.886Z,56.25
2023-06-10T03:55:48.879Z,61.88
2023-06-10T03:56:48.870Z,61.88
2023-06-10T03:57:48.861Z,67.50
2023-06-10T03:58:48.878Z,67.50
2023-06-10T03:59:48.847Z,67.50
2023-06-10T04:00:48.816Z,73.12
2023-06-10T04:01:48.894Z,73.12
2023-06-10T04:02:48.918Z,78.75
2023-06-10T04:03:48.785Z,78.75
2023-06-10T04:04:48.754Z,78.75
2023-06-10T04:05:48.774Z,84.38
2023-06-10T04:06:48.744Z,84.38
2023-06-10T04:07:48.716Z,90.00
2023-06-10T04:08:48.706Z,90.00
2023-06-10T04:09:48.689Z,90.00
2023-06-10T04:10:48.659Z,95.62
2023-06-10T04:11:48.674Z,95.62
2023-06-10T04:12:48.646Z,101.25
2023-06-10T04:13:48.635Z,101.25
2023-06-10T04:14:48.637Z,106.88
2023-06-10T04:15:48.612Z,106.88
2023-06-10T04:16:48.621Z,106.88
2023-06-10T04:17:48.612Z,112.50
2023-06-10T04:18:48.585Z,112.50
2023-06-10T04:19:48.545Z,118.12
2023-06-10T04:20:48.543Z,118.12
2023-06-10T04:21:48.516Z,123.75
2023-06-10T04:22:48.498Z,123.75
2023-06-10T04:23:48.509Z,123.75
2023-06-10T04:24:48.496Z,129.38
2023-06-10T04:25:48.486Z,129.38
2023-06-10T04:26:48.441Z,135.00
2023-06-10T04:27:48.425Z,135.00
2023-06-10T04:28:48.419Z,140.62
2023-06-10T04:29:48.421Z,140.62
2023-06-10T04:30:48.409Z,146.25
2023-06-10T04:31:48.401Z,146.25
2023-06-10T04:32:48.405Z,146.25
2023-06-10T04:33:48.356Z,151.88
2023-06-10T04:34:48.345Z,151.88
2023-06-10T04:35:48.324Z,157.50
2023-06-10T04:36:48.313Z,157.50
2023-06-10T04:37:48.295Z,163.12
2023-06-10T04:38:48.278Z,163.12
2023-06-10T04:39:48.276Z,168.75
2023-06-10T04:40:48.264Z,168.75
2023-06-10T04:41:48.257Z,168.75
2023-06-10T04:42:48.223Z,174.38
2023-06-10T04:43:48.211Z,174.38
2023-06-10T04:44:48.200Z,180.00
2023-06-10T04:45:48.185Z,185.62
2023-06-10T04:46:48.220Z,191.25
2023-06-10T04:47:48.229Z,202.50
2023-06-10T04:48:48.154Z,219.38
2023-06-10T04:49:48.140Z,230.62
2023-06-10T04:50:48.103Z,253.12
2023-06-10T04:51:48.098Z,275.62
2023-06-10T04:52:48.067Z,281.25
2023-06-10T04:53:48.056Z,320.62
2023-06-10T04:54:48.058Z,331.88
2023-06-10T04:55:48.040Z,343.12
2023-06-10T04:56:48.048Z,348.75
2023-06-10T04:57:49.705Z,360.00
2023-06-10T04:58:48.017Z,371.25
2023-06-10T04:59:47.996Z,376.88
2023-06-10T05:00:47.976Z,388.12
2023-06-10T05:01:48.002Z,393.75
2023-06-10T05:02:47.972Z,399.38
2023-06-10T05:03:47.975Z,393.75
2023-06-10T05:04:47.905Z,399.38
2023-06-10T05:05:47.899Z,405.00
2023-06-10T05:06:47.871Z,416.25
2023-06-10T05:07:47.881Z,427.50
2023-06-10T05:08:47.876Z,444.38
2023-06-10T05:09:47.844Z,455.62
2023-06-10T05:10:47.822Z,450.00
2023-06-10T05:11:47.823Z,450.00
2023-06-10T05:12:47.826Z,461.25
2023-06-10T05:13:47.800Z,466.88
2023-06-10T05:14:47.789Z,478.12
2023-06-10T05:15:47.756Z,483.75
2023-06-10T05:16:47.814Z,489.38
2023-06-10T05:17:47.794Z,495.00
2023-06-10T05:18:47.718Z,506.25
2023-06-10T05:19:47.714Z,528.75
2023-06-10T05:20:47.700Z,545.62
2023-06-10T05:21:47.672Z,540.00
2023-06-10T05:22:47.679Z,540.00
2023-06-10T05:23:47.656Z,551.25
2023-06-10T05:24:47.672Z,562.50
2023-06-10T05:25:47.616Z,562.50
2023-06-10T05:26:47.620Z,568.12
2023-06-10T05:27:47.614Z,579.38
2023-06-10T05:28:47.587Z,579.38
2023-06-10T05:29:47.564Z,585.00
2023-06-10T05:30:47.558Z,590.62
2023-06-10T05:31:47.612Z,596.25
2023-06-10T05:32:47.549Z,607.50
2023-06-10T05:33:47.509Z,641.25
2023-06-10T05:34:47.523Z,680.62
2023-06-10T05:35:47.482Z,686.25
2023-06-10T05:36:47.475Z,686.25
2023-06-10T05:37:47.477Z,697.50
2023-06-10T05:38:47.451Z,708.75
2023-06-10T05:39:47.422Z,714.38
2023-06-10T05:40:47.421Z,720.00
2023-06-10T05:41:47.405Z,731.25
2023-06-10T05:42:47.395Z,748.12
2023-06-10T05:43:47.618Z,759.38
2023-06-10T05:44:47.366Z,759.38
2023-06-10T05:45:47.384Z,708.75
2023-06-10T05:46:47.328Z,540.00
2023-06-10T05:47:47.347Z,376.88
2023-06-10T05:48:45.374Z,315.00
2023-06-10T05:49:47.276Z,320.62
2023-06-10T05:50:47.264Z,320.62
2023-06-10T05:51:47.266Z,320.62
2023-06-10T05:52:47.259Z,326.25
2023-06-10T05:53:47.232Z,326.25
2023-06-10T05:54:47.241Z,326.25
2023-06-10T05:55:47.211Z,326.25
2023-06-10T05:56:47.192Z,326.25
2023-06-10T05:57:47.164Z,331.88
2023-06-10T05:58:47.163Z,331.88
2023-06-10T05:59:47.155Z,331.88
2023-06-10T06:00:47.160Z,331.88
2023-06-10T06:01:47.132Z,337.50
2023-06-10T06:02:47.158Z,337.50
2023-06-10T06:03:47.221Z,337.50
2023-06-10T06:04:47.090Z,421.88
2023-06-10T06:05:47.080Z,680.62
2023-06-10T06:06:47.059Z,894.38
2023-06-10T06:07:47.038Z,928.12
2023-06-10T06:08:47.027Z,961.88
2023-06-10T06:09:47.019Z,973.12
2023-06-10T06:10:47.054Z,973.12
2023-06-10T06:11:45.702Z,984.38
2023-06-10T06:12:46.959Z,995.62
2023-06-10T06:13:46.953Z,1012.50
2023-06-10T06:14:46.946Z,1040.62
2023-06-10T06:15:46.971Z,1080.00
2023-06-10T06:16:46.922Z,1108.12
2023-06-10T06:17:46.955Z,1085.62
2023-06-10T06:18:46.385Z,1068.75
2023-06-10T06:19:46.864Z,1080.00
2023-06-10T06:20:46.862Z,1102.50
2023-06-10T06:21:46.849Z,1125.00
2023-06-10T06:22:46.829Z,1119.38
2023-06-10T06:23:46.865Z,1125.00
2023-06-10T06:24:46.884Z,1136.25
2023-06-10T06:25:46.796Z,1153.12
2023-06-10T06:26:46.776Z,1164.38
2023-06-10T06:27:46.749Z,1175.62
2023-06-10T06:28:46.747Z,1192.50
2023-06-10T06:29:46.853Z,1215.00
2023-06-10T06:30:46.743Z,1231.88
2023-06-10T06:31:46.775Z,1237.50
2023-06-10T06:32:46.749Z,1237.50
2023-06-10T06:33:46.700Z,1248.75
2023-06-10T06:34:46.216Z,1282.50
2023-06-10T06:35:44.961Z,1282.50
2023-06-10T06:36:50.177Z,1282.50
2023-06-10T06:37:48.948Z,1293.75
2023-06-10T06:38:46.627Z,1321.88
2023-06-10T06:39:46.607Z,1350.00
2023-06-10T06:40:46.845Z,1355.62
2023-06-10T06:41:46.795Z,1366.88
2023-06-10T06:42:46.564Z,1366.88
2023-06-10T06:43:46.528Z,1372.50
2023-06-10T06:44:46.562Z,1389.38
2023-06-10T06:45:46.507Z,1400.62
2023-06-10T06:46:46.501Z,1406.25
2023-06-10T06:47:46.698Z,1428.75
2023-06-10T06:48:46.588Z,2874.38
2023-06-10T06:49:46.477Z,2874.38
2023-06-10T06:50:46.443Z,2874.38
2023-06-10T06:51:46.472Z,2874.38
2023-06-10T06:52:46.425Z,2874.38
2023-06-10T06:53:46.410Z,2874.38
2023-06-10T06:54:46.381Z,2874.38
2023-06-10T06:55:46.385Z,2874.38
2023-06-10T06:56:46.360Z,2874.38
2023-06-10T06:57:46.349Z,2874.38
2023-06-10T06:58:46.350Z,2874.38
2023-06-10T06:59:46.316Z,2874.38
2023-06-10T07:00:46.341Z,2874.38
2023-06-10T07:01:44.386Z,2874.38
2023-06-10T07:02:46.317Z,2874.38
2023-06-10T07:03:46.289Z,2874.38
2023-06-10T07:04:45.999Z,2874.38
2023-06-10T07:05:46.314Z,2874.38
2023-06-10T07:06:46.243Z,2874.38
2023-06-10T07:07:44.435Z,2874.38
2023-06-10T07:08:46.227Z,2874.38
2023-06-10T07:09:46.192Z,2874.38
2023-06-10T07:10:46.175Z,2874.38
2023-06-10T07:11:51.907Z,2874.38
2023-06-10T07:12:46.195Z,2874.38
2023-06-10T07:13:46.147Z,2874.38
2023-06-10T07:14:46.209Z,2874.38
2023-06-10T07:15:46.325Z,2874.38
2023-06-10T07:16:46.521Z,2874.38
2023-06-10T07:17:46.162Z,2874.38
2023-06-10T07:18:46.070Z,2874.38
2023-06-10T07:19:45.545Z,2874.38
2023-06-10T07:20:46.043Z,2874.38
2023-06-10T07:21:46.034Z,2874.38
2023-06-10T07:22:46.034Z,2874.38
2023-06-10T07:23:46.121Z,2874.38
2023-06-10T07:24:45.974Z,2874.38
2023-06-10T07:25:46.003Z,2874.38
2023-06-10T07:26:46.423Z,2874.38
2023-06-10T07:27:45.980Z,2874.38
2023-06-10T07:28:45.951Z,2874.38
2023-06-10T07:29:43.998Z,2874.38
2023-06-10T07:30:45.937Z,2874.38
2023-06-10T07:31:45.907Z,2874.38
2023-06-10T07:32:45.960Z,2874.38
2023-06-10T07:33:45.877Z,2874.38
2023-06-10T07:34:45.855Z,2874.38
2023-06-10T07:35:45.844Z,2874.38
2023-06-10T07:36:45.891Z,2874.38
2023-06-10T07:37:45.816Z,2874.38
2023-06-10T07:38:45.813Z,2874.38
2023-06-10T07:39:45.800Z,2874.38
2023-06-10T07:40:45.761Z,2874.38
2023-06-10T07:41:45.781Z,2874.38
2023-06-10T07:42:45.750Z,2874.38
2023-06-10T07:43:45.731Z,2874.38
2023-06-10T07:44:45.742Z,2874.38
2023-06-10T07:45:45.710Z,2874.38
2023-06-10T07:46:45.776Z,2874.38
2023-06-10T07:47:45.751Z,2874.38
2023-06-10T07:48:45.664Z,2874.38
2023-06-10T07:49:45.671Z,2874.38
2023-06-10T07:50:45.674Z,2874.38
2023-06-10T07:51:44.785Z,2874.38
2023-06-10T07:52:45.610Z,2874.38
2023-06-10T07:53:45.590Z,2874.38
2023-06-10T07:54:45.603Z,2874.38
2023-06-10T07:55:45.616Z,2874.38
2023-06-10T07:56:45.564Z,2874.38
2023-06-10T07:57:45.561Z,2874.38
2023-06-10T07:58:45.540Z,2874.38
2023-06-10T07:59:45.531Z,2874.38
2023-06-10T08:00:45.531Z,2874.38
2023-06-10T08:01:45.503Z,2874.38
2023-06-10T08:02:45.529Z,2874.38
2023-06-10T08:03:45.735Z,2874.38
2023-06-10T08:04:45.512Z,2874.38
2023-06-10T08:05:45.462Z,2874.38
2023-06-10T08:06:45.512Z,2874.38
2023-06-10T08:07:45.441Z,2874.38
2023-06-10T08:08:45.478Z,2874.38
2023-06-10T08:09:45.534Z,2874.38
2023-06-10T08:10:45.481Z,2874.38
2023-06-10T08:11:45.454Z,2874.38
2023-06-10T08:12:45.350Z,2874.38
2023-06-10T08:13:45.363Z,2874.38
2023-06-10T08:14:45.355Z,2874.38
2023-06-10T08:15:45.347Z,2874.38
2023-06-10T08:16:45.467Z,2874.38
2023-06-10T08:17:45.309Z,2874.38
2023-06-10T08:18:45.302Z,2874.38
2023-06-10T08:19:45.290Z,2874.38
2023-06-10T08:20:44.770Z,2874.38
2023-06-10T08:21:45.240Z,2874.38
2023-06-10T08:22:45.235Z,2874.38
2023-06-10T08:23:45.281Z,2874.38
2023-06-10T08:24:48.402Z,2874.38
2023-06-10T08:25:43.859Z,2874.38
2023-06-10T08:26:45.198Z,2874.38
2023-06-10T08:27:45.216Z,2874.38
2023-06-10T08:28:43.862Z,2874.38
2023-06-10T08:29:45.147Z,2874.38
2023-06-10T08:30:45.142Z,2874.38
2023-06-10T08:31:45.227Z,2874.38
2023-06-10T08:32:45.132Z,2874.38
2023-06-10T08:33:45.106Z,2874.38
2023-06-10T08:34:45.159Z,2874.38
2023-06-10T08:35:45.078Z,2874.38
2023-06-10T08:36:43.101Z,2874.38
2023-06-10T08:37:45.074Z,2874.38
2023-06-10T08:38:45.095Z,2874.38
2023-06-10T08:39:45.082Z,2874.38
2023-06-10T08:40:44.284Z,2874.38
2023-06-10T08:41:45.031Z,2874.38
2023-06-10T08:42:46.123Z,2874.38
2023-06-10T08:43:44.976Z,2874.38
2023-06-10T08:44:44.947Z,2874.38
2023-06-10T08:45:45.093Z,860.62
2023-06-10T08:46:44.946Z,2874.38
2023-06-10T08:47:44.984Z,2874.38
2023-06-10T08:48:44.964Z,2874.38
2023-06-10T08:49:44.901Z,2874.38
2023-06-10T08:50:44.884Z,2874.38
2023-06-10T08:51:42.969Z,2874.38
2023-06-10T08:52:44.870Z,2874.38
2023-06-10T08:53:44.835Z,2874.38
2023-06-10T08:54:44.844Z,2874.38
2023-06-10T08:55:44.814Z,849.38
2023-06-10T08:56:44.812Z,691.88
2023-06-10T08:57:42.917Z,855.00
2023-06-10T08:58:44.793Z,2874.38
2023-06-10T08:59:44.765Z,2874.38
2023-06-10T09:00:44.752Z,2874.38
2023-06-10T09:01:44.777Z,2874.38
2023-06-10T09:02:44.777Z,2874.38
2023-06-10T09:03:45.034Z,2874.38
2023-06-10T09:04:44.701Z,2874.38
2023-06-10T09:05:44.697Z,2874.38
2023-06-10T09:06:44.694Z,2874.38
2023-06-10T09:07:44.677Z,2874.38
2023-06-10T09:08:44.667Z,2874.38
2023-06-10T09:09:44.659Z,2874.38
2023-06-10T09:10:44.637Z,2874.38
2023-06-10T09:11:44.634Z,2874.38
2023-06-10T09:12:44.614Z,2874.38
2023-06-10T09:13:44.595Z,776.25
2023-06-10T09:14:44.589Z,2874.38
2023-06-10T09:15:44.577Z,2874.38
2023-06-10T09:16:44.596Z,2874.38
2023-06-10T09:17:44.577Z,2874.38
2023-06-10T09:18:44.551Z,2874.38
2023-06-10T09:19:44.535Z,2874.38
2023-06-10T09:20:43.997Z,2874.38
2023-06-10T09:21:42.887Z,2874.38
2023-06-10T09:22:44.920Z,855.00
2023-06-10T09:23:44.895Z,714.38
2023-06-10T09:24:44.512Z,815.62
2023-06-10T09:25:43.235Z,4314.38
2023-06-10T09:26:44.654Z,843.75
2023-06-10T09:27:44.436Z,855.00
2023-06-10T09:28:44.437Z,984.38
2023-06-10T09:29:44.438Z,2874.38
2023-06-10T09:30:44.404Z,2874.38
2023-06-10T09:31:44.482Z,815.62
2023-06-10T09:32:44.459Z,855.00
2023-06-10T09:33:44.381Z,995.62
2023-06-10T09:34:44.682Z,4314.38
2023-06-10T09:35:44.550Z,4314.38
2023-06-10T09:36:44.323Z,4314.38
2023-06-10T09:37:44.302Z,1080.00
2023-06-10T09:38:43.718Z,4314.38
2023-06-10T09:39:44.301Z,4314.38
2023-06-10T09:40:44.275Z,4314.38
2023-06-10T09:41:44.332Z,1158.75
2023-06-10T09:42:42.849Z,1333.12
2023-06-10T09:43:44.238Z,2874.38
2023-06-10T09:44:43.683Z,4314.38
2023-06-10T09:45:44.229Z,2874.38
2023-06-10T09:46:45.149Z,2874.38
2023-06-10T09:47:44.341Z,787.50
2023-06-10T09:48:43.717Z,703.12
2023-06-10T09:49:42.752Z,4314.38
2023-06-10T09:50:44.221Z,905.62
2023-06-10T09:51:44.144Z,916.88
2023-06-10T09:52:42.536Z,1147.50
2023-06-10T09:53:42.301Z,860.62
2023-06-10T09:54:44.366Z,781.88
2023-06-10T09:55:44.080Z,1125.00
2023-06-10T09:56:43.859Z,4314.38
2023-06-10T09:57:42.740Z,1215.00
2023-06-10T09:58:44.075Z,2874.38
2023-06-10T09:59:44.204Z,849.38
2023-06-10T10:00:44.019Z,4314.38
2023-06-10T10:01:44.131Z,866.25
2023-06-10T10:02:44.004Z,1186.88
2023-06-10T10:03:43.987Z,4314.38
2023-06-10T10:04:44.009Z,4314.38
2023-06-10T10:05:44.003Z,2874.38
2023-06-10T10:06:42.472Z,945.00
2023-06-10T10:07:44.018Z,4314.38
2023-06-10T10:08:43.996Z,916.88
2023-06-10T10:09:44.024Z,4314.38
2023-06-10T10:10:43.923Z,4314.38
2023-06-10T10:11:42.856Z,928.12
2023-06-10T10:12:42.206Z,826.88
2023-06-10T10:13:43.954Z,4314.38
2023-06-10T10:14:43.385Z,883.12
2023-06-10T10:15:43.909Z,905.62
2023-06-10T10:16:43.861Z,2874.38
2023-06-10T10:17:43.836Z,2874.38
2023-06-10T10:18:43.821Z,2874.38
2023-06-10T10:19:46.311Z,2874.38
2023-06-10T10:20:43.745Z,4314.38
2023-06-10T10:21:43.028Z,759.38
2023-06-10T10:22:43.777Z,708.75
2023-06-10T10:23:43.819Z,703.12
2023-06-10T10:24:43.722Z,1147.50
2023-06-10T10:25:43.767Z,2874.38
2023-06-10T10:26:41.758Z,686.25
2023-06-10T10:27:43.746Z,708.75
2023-06-10T10:28:43.697Z,2874.38
2023-06-10T10:29:43.664Z,4314.38
2023-06-10T10:30:43.663Z,4314.38
2023-06-10T10:31:43.614Z,1136.25
2023-06-10T10:32:43.665Z,2874.38
2023-06-10T10:33:43.676Z,4314.38
2023-06-10T10:34:43.564Z,1035.00
2023-06-10T10:35:43.542Z,2874.38
2023-06-10T10:36:43.600Z,4314.38
2023-06-10T10:37:43.548Z,4314.38
2023-06-10T10:38:43.525Z,2874.38
2023-06-10T10:39:43.501Z,978.75
2023-06-10T10:40:43.476Z,1057.50
2023-06-10T10:41:43.497Z,4314.38
2023-06-10T10:42:42.976Z,4314.38
2023-06-10T10:43:43.491Z,4314.38
2023-06-10T10:44:43.421Z,4314.38
2023-06-10T10:45:41.681Z,4314.38
2023-06-10T10:46:43.615Z,4314.38
2023-06-10T10:47:42.849Z,866.25
2023-06-10T10:48:43.405Z,4314.38
2023-06-10T10:49:43.421Z,4314.38
2023-06-10T10:50:42.033Z,4314.38
2023-06-10T10:51:43.368Z,4314.38
2023-06-10T10:52:41.567Z,4314.38
2023-06-10T10:53:43.338Z,4314.38
2023-06-10T10:54:43.303Z,4314.38
2023-06-10T10:55:43.311Z,4314.38
2023-06-10T10:56:43.652Z,4314.38
2023-06-10T10:57:43.275Z,4314.38
2023-06-10T10:58:43.280Z,4314.38
2023-06-10T10:59:43.249Z,4314.38
2023-06-10T11:00:41.422Z,4314.38
2023-06-10T11:01:43.302Z,4314.38
2023-06-10T11:02:42.817Z,4314.38
2023-06-10T11:03:43.290Z,1423.12
2023-06-10T11:04:43.318Z,905.62
2023-06-10T11:05:43.307Z,826.88
2023-06-10T11:06:43.164Z,1035.00
2023-06-10T11:07:43.156Z,2874.38
2023-06-10T11:08:43.241Z,4314.38
2023-06-10T11:09:43.121Z,4314.38
2023-06-10T11:10:43.102Z,4314.38
2023-06-10T11:11:43.119Z,4314.38
2023-06-10T11:12:43.085Z,4314.38
2023-06-10T11:13:43.091Z,2874.38
2023-06-10T11:14:43.062Z,4314.38
2023-06-10T11:15:43.050Z,4314.38
2023-06-10T11:16:43.197Z,4314.38
2023-06-10T11:17:43.076Z,4314.38
2023-06-10T11:18:43.023Z,4314.38
2023-06-10T11:19:44.525Z,4314.38
2023-06-10T11:20:41.128Z,4314.38
2023-06-10T11:21:43.233Z,4314.38
2023-06-10T11:22:42.948Z,4314.38
2023-06-10T11:23:43.119Z,4314.38
2023-06-10T11:24:43.051Z,4314.38
2023-06-10T11:25:42.927Z,2874.38
2023-06-10T11:26:42.918Z,4314.38
2023-06-10T11:27:42.934Z,4314.38
2023-06-10T11:28:42.962Z,4314.38
2023-06-10T11:29:42.928Z,4314.38
2023-06-10T11:30:42.916Z,4314.38
2023-06-10T11:31:43.012Z,2874.38
2023-06-10T11:32:42.908Z,2874.38
2023-06-10T11:33:42.903Z,765.00
2023-06-10T11:34:42.807Z,686.25
2023-06-10T11:35:42.957Z,894.38
2023-06-10T11:36:42.789Z,4314.38
2023-06-10T11:37:42.811Z,4314.38
2023-06-10T11:38:42.826Z,4314.38
2023-06-10T11:39:42.728Z,4314.38
2023-06-10T11:40:42.815Z,4314.38
2023-06-10T11:41:42.731Z,4314.38
2023-06-10T11:42:42.714Z,4314.38
2023-06-10T11:43:42.728Z,4314.38
2023-06-10T11:44:42.935Z,4314.38
2023-06-10T11:45:42.724Z,4314.38
2023-06-10T11:46:44.244Z,4314.38
2023-06-10T11:47:42.715Z,4314.38
2023-06-10T11:48:42.908Z,4314.38
2023-06-10T11:49:44.988Z,4314.38
2023-06-10T11:50:42.646Z,4314.38
2023-06-10T11:51:42.133Z,4314.38
2023-06-10T11:52:42.609Z,4314.38
2023-06-10T11:53:42.604Z,4314.38
2023-06-10T11:54:42.550Z,4314.38
2023-06-10T11:55:42.557Z,4314.38
2023-06-10T11:56:42.715Z,4314.38
2023-06-10T11:57:42.505Z,4314.38
2023-06-10T11:58:42.499Z,4314.38
2023-06-10T11:59:42.601Z,4314.38
2023-06-10T12:00:42.481Z,4314.38
2023-06-10T12:01:44.356Z,4314.38
2023-06-10T12:02:42.498Z,4314.38
2023-06-10T12:03:42.578Z,4314.38
2023-06-10T12:04:42.422Z,1035.00
2023-06-10T12:05:42.626Z,1164.38
2023-06-10T12:06:44.000Z,961.88
2023-06-10T12:07:42.393Z,945.00
2023-06-10T12:08:42.391Z,933.75
2023-06-10T12:09:42.388Z,765.00
2023-06-10T12:10:42.341Z,720.00
2023-06-10T12:11:42.322Z,2874.38
2023-06-10T12:12:42.312Z,4314.38
2023-06-10T12:13:42.308Z,4314.38
2023-06-10T12:14:42.291Z,4314.38
2023-06-10T12:15:42.280Z,4314.38
2023-06-10T12:16:42.269Z,4314.38
2023-06-10T12:17:42.292Z,4314.38
2023-06-10T12:18:41.827Z,4314.38
2023-06-10T12:19:42.232Z,4314.38
2023-06-10T12:20:42.229Z,4314.38
2023-06-10T12:21:42.211Z,4314.38
2023-06-10T12:22:42.365Z,4314.38
2023-06-10T12:23:42.228Z,4314.38
2023-06-10T12:24:41.772Z,4314.38
2023-06-10T12:25:42.180Z,4314.38
2023-06-10T12:26:42.324Z,4314.38
2023-06-10T12:27:42.180Z,4314.38
2023-06-10T12:28:42.190Z,4314.38
2023-06-10T12:29:42.084Z,4314.38
2023-06-10T12:30:41.597Z,4314.38
2023-06-10T12:31:42.117Z,4314.38
2023-06-10T12:32:42.364Z,911.25